Metar Aviation Weather Data EGNJ

15°C Temp
11°C Dewpoint
% Humidity
Temperature
32 KM/H
20 MPH
17 KTS
190°
Due South

Wind Speed
Overcast
Conditions
Pressure 1006.92 (hPa) - 29.73 (in)
Visibility 6.2 (mi) - 10 (km)

Current Conditions
EGNJ
Metar :EGNJ 280320Z AUTO 19017KT 9999 OVC028/// 15/11 Q1007
Thu 28th October 04:20 am

  Metar Aviation API Data Provided by https://www.checkwx.com/ PHP scripts by weather34.com ©2021